sensor_id;sensor_type;location;lat;lon;timestamp;P1;durP1;ratioP1;P2;durP2;ratioP2
46006;SDS011;31738;50.188;8.524;2023-03-04T00:01:36;13.82;;;5.70;;
46006;SDS011;31738;50.188;8.524;2023-03-04T00:04:01;18.45;;;6.53;;
46006;SDS011;31738;50.188;8.524;2023-03-04T00:06:27;16.25;;;6.53;;
46006;SDS011;31738;50.188;8.524;2023-03-04T00:08:52;14.68;;;6.32;;
46006;SDS011;31738;50.188;8.524;2023-03-04T00:11:18;16.92;;;7.55;;
46006;SDS011;31738;50.188;8.524;2023-03-04T00:13:43;19.38;;;7.43;;
46006;SDS011;31738;50.188;8.524;2023-03-04T00:16:09;15.60;;;6.32;;
46006;SDS011;31738;50.188;8.524;2023-03-04T00:18:34;17.52;;;7.97;;
46006;SDS011;31738;50.188;8.524;2023-03-04T00:21:00;17.48;;;6.60;;
46006;SDS011;31738;50.188;8.524;2023-03-04T00:23:25;18.40;;;7.82;;
46006;SDS011;31738;50.188;8.524;2023-03-04T00:25:51;19.23;;;8.02;;
46006;SDS011;31738;50.188;8.524;2023-03-04T00:28:16;20.55;;;8.23;;
46006;SDS011;31738;50.188;8.524;2023-03-04T00:30:42;18.80;;;7.95;;
46006;SDS011;31738;50.188;8.524;2023-03-04T00:33:07;19.23;;;8.45;;
46006;SDS011;31738;50.188;8.524;2023-03-04T00:35:33;21.90;;;9.25;;
46006;SDS011;31738;50.188;8.524;2023-03-04T00:37:58;30.30;;;11.93;;
46006;SDS011;31738;50.188;8.524;2023-03-04T00:40:23;35.35;;;13.30;;
46006;SDS011;31738;50.188;8.524;2023-03-04T00:42:49;32.28;;;13.00;;
46006;SDS011;31738;50.188;8.524;2023-03-04T00:45:15;35.40;;;14.80;;
46006;SDS011;31738;50.188;8.524;2023-03-04T00:47:40;40.22;;;16.15;;
46006;SDS011;31738;50.188;8.524;2023-03-04T00:50:06;37.22;;;15.65;;
46006;SDS011;31738;50.188;8.524;2023-03-04T00:52:31;40.10;;;16.58;;
46006;SDS011;31738;50.188;8.524;2023-03-04T00:54:57;35.13;;;14.77;;
46006;SDS011;31738;50.188;8.524;2023-03-04T00:57:22;34.70;;;15.63;;
46006;SDS011;31738;50.188;8.524;2023-03-04T00:59:48;41.80;;;17.00;;
46006;SDS011;31738;50.188;8.524;2023-03-04T01:02:13;37.83;;;15.20;;
46006;SDS011;31738;50.188;8.524;2023-03-04T01:04:39;37.22;;;15.48;;
46006;SDS011;31738;50.188;8.524;2023-03-04T01:07:06;41.55;;;17.05;;
46006;SDS011;31738;50.188;8.524;2023-03-04T01:09:32;50.60;;;20.55;;
46006;SDS011;31738;50.188;8.524;2023-03-04T01:11:57;43.42;;;18.42;;
46006;SDS011;31738;50.188;8.524;2023-03-04T01:14:23;38.60;;;17.05;;
46006;SDS011;31738;50.188;8.524;2023-03-04T01:16:49;41.53;;;17.25;;
46006;SDS011;31738;50.188;8.524;2023-03-04T01:19:14;43.30;;;17.60;;
46006;SDS011;31738;50.188;8.524;2023-03-04T01:21:40;45.65;;;17.70;;
46006;SDS011;31738;50.188;8.524;2023-03-04T01:24:05;43.22;;;18.23;;
46006;SDS011;31738;50.188;8.524;2023-03-04T01:26:31;47.65;;;19.95;;
46006;SDS011;31738;50.188;8.524;2023-03-04T01:28:57;48.92;;;19.65;;
46006;SDS011;31738;50.188;8.524;2023-03-04T01:31:22;49.15;;;19.80;;
46006;SDS011;31738;50.188;8.524;2023-03-04T01:33:50;50.00;;;20.30;;
46006;SDS011;31738;50.188;8.524;2023-03-04T01:36:15;43.97;;;18.85;;
46006;SDS011;31738;50.188;8.524;2023-03-04T01:38:40;42.13;;;19.60;;
46006;SDS011;31738;50.188;8.524;2023-03-04T01:41:06;42.58;;;17.40;;
46006;SDS011;31738;50.188;8.524;2023-03-04T01:43:32;38.78;;;16.50;;
46006;SDS011;31738;50.188;8.524;2023-03-04T01:46:00;43.30;;;17.40;;
46006;SDS011;31738;50.188;8.524;2023-03-04T01:48:27;51.20;;;17.75;;
46006;SDS011;31738;50.188;8.524;2023-03-04T01:50:55;44.95;;;17.33;;
46006;SDS011;31738;50.188;8.524;2023-03-04T01:53:23;52.10;;;18.65;;
46006;SDS011;31738;50.188;8.524;2023-03-04T01:55:51;47.38;;;17.70;;
46006;SDS011;31738;50.188;8.524;2023-03-04T01:58:19;51.05;;;18.08;;
46006;SDS011;31738;50.188;8.524;2023-03-04T02:00:44;43.03;;;16.80;;
46006;SDS011;31738;50.188;8.524;2023-03-04T02:03:11;39.95;;;16.67;;
46006;SDS011;31738;50.188;8.524;2023-03-04T02:05:43;49.25;;;18.40;;
46006;SDS011;31738;50.188;8.524;2023-03-04T02:08:11;50.50;;;18.15;;
46006;SDS011;31738;50.188;8.524;2023-03-04T02:10:38;46.95;;;17.77;;
46006;SDS011;31738;50.188;8.524;2023-03-04T02:13:06;48.75;;;17.33;;
46006;SDS011;31738;50.188;8.524;2023-03-04T02:15:31;51.30;;;18.25;;
46006;SDS011;31738;50.188;8.524;2023-03-04T02:17:57;55.20;;;18.50;;
46006;SDS011;31738;50.188;8.524;2023-03-04T02:23:11;40.28;;;16.80;;
46006;SDS011;31738;50.188;8.524;2023-03-04T02:25:49;50.05;;;18.67;;
46006;SDS011;31738;50.188;8.524;2023-03-04T02:28:24;50.45;;;19.67;;
46006;SDS011;31738;50.188;8.524;2023-03-04T02:30:49;46.60;;;18.42;;
46006;SDS011;31738;50.188;8.524;2023-03-04T02:33:16;47.60;;;18.58;;
46006;SDS011;31738;50.188;8.524;2023-03-04T02:35:43;49.15;;;17.67;;
46006;SDS011;31738;50.188;8.524;2023-03-04T02:38:09;50.90;;;18.92;;
46006;SDS011;31738;50.188;8.524;2023-03-04T02:40:36;48.10;;;18.63;;
46006;SDS011;31738;50.188;8.524;2023-03-04T02:43:04;53.78;;;18.17;;
46006;SDS011;31738;50.188;8.524;2023-03-04T02:45:41;56.20;;;18.85;;
46006;SDS011;31738;50.188;8.524;2023-03-04T02:48:09;47.60;;;18.25;;
46006;SDS011;31738;50.188;8.524;2023-03-04T02:50:37;57.05;;;20.20;;
46006;SDS011;31738;50.188;8.524;2023-03-04T02:53:05;58.95;;;21.25;;
46006;SDS011;31738;50.188;8.524;2023-03-04T02:55:34;50.30;;;19.52;;
46006;SDS011;31738;50.188;8.524;2023-03-04T02:58:00;54.25;;;20.38;;
46006;SDS011;31738;50.188;8.524;2023-03-04T03:00:26;60.42;;;21.85;;
46006;SDS011;31738;50.188;8.524;2023-03-04T03:02:53;60.47;;;21.23;;
46006;SDS011;31738;50.188;8.524;2023-03-04T03:05:22;57.83;;;20.30;;
46006;SDS011;31738;50.188;8.524;2023-03-04T03:07:49;61.08;;;22.25;;
46006;SDS011;31738;50.188;8.524;2023-03-04T03:10:15;65.05;;;21.75;;
46006;SDS011;31738;50.188;8.524;2023-03-04T03:12:41;61.75;;;22.63;;
46006;SDS011;31738;50.188;8.524;2023-03-04T03:15:07;74.18;;;24.67;;
46006;SDS011;31738;50.188;8.524;2023-03-04T03:17:32;72.82;;;23.88;;
46006;SDS011;31738;50.188;8.524;2023-03-04T03:19:58;65.20;;;22.92;;
46006;SDS011;31738;50.188;8.524;2023-03-04T03:22:24;59.33;;;21.50;;
46006;SDS011;31738;50.188;8.524;2023-03-04T03:24:49;60.45;;;21.92;;
46006;SDS011;31738;50.188;8.524;2023-03-04T03:27:15;69.45;;;24.17;;
46006;SDS011;31738;50.188;8.524;2023-03-04T03:29:41;75.60;;;24.85;;
46006;SDS011;31738;50.188;8.524;2023-03-04T03:32:06;71.72;;;23.23;;
46006;SDS011;31738;50.188;8.524;2023-03-04T03:34:32;69.63;;;23.92;;
46006;SDS011;31738;50.188;8.524;2023-03-04T03:36:58;75.18;;;24.85;;
46006;SDS011;31738;50.188;8.524;2023-03-04T03:39:23;73.13;;;25.30;;
46006;SDS011;31738;50.188;8.524;2023-03-04T03:41:48;74.07;;;23.92;;
46006;SDS011;31738;50.188;8.524;2023-03-04T03:44:14;66.30;;;23.75;;
46006;SDS011;31738;50.188;8.524;2023-03-04T03:46:39;62.47;;;22.33;;
46006;SDS011;31738;50.188;8.524;2023-03-04T03:49:05;71.78;;;23.45;;
46006;SDS011;31738;50.188;8.524;2023-03-04T03:51:30;64.88;;;22.98;;
46006;SDS011;31738;50.188;8.524;2023-03-04T03:53:56;58.63;;;23.17;;
46006;SDS011;31738;50.188;8.524;2023-03-04T03:56:21;67.47;;;22.65;;
46006;SDS011;31738;50.188;8.524;2023-03-04T03:58:47;67.68;;;23.60;;
46006;SDS011;31738;50.188;8.524;2023-03-04T04:01:12;66.10;;;24.00;;
46006;SDS011;31738;50.188;8.524;2023-03-04T04:03:37;62.15;;;21.75;;
46006;SDS011;31738;50.188;8.524;2023-03-04T04:06:03;62.22;;;23.58;;
46006;SDS011;31738;50.188;8.524;2023-03-04T04:08:28;68.80;;;23.67;;
46006;SDS011;31738;50.188;8.524;2023-03-04T04:10:54;59.13;;;23.17;;
46006;SDS011;31738;50.188;8.524;2023-03-04T04:13:19;63.70;;;24.10;;
46006;SDS011;31738;50.188;8.524;2023-03-04T04:15:45;61.80;;;23.63;;
46006;SDS011;31738;50.188;8.524;2023-03-04T04:18:10;64.03;;;25.55;;
46006;SDS011;31738;50.188;8.524;2023-03-04T04:20:36;64.80;;;24.75;;
46006;SDS011;31738;50.188;8.524;2023-03-04T04:23:01;64.78;;;23.88;;
46006;SDS011;31738;50.188;8.524;2023-03-04T04:25:28;64.70;;;24.60;;
46006;SDS011;31738;50.188;8.524;2023-03-04T04:27:53;65.65;;;24.40;;
46006;SDS011;31738;50.188;8.524;2023-03-04T04:30:19;66.75;;;25.58;;
46006;SDS011;31738;50.188;8.524;2023-03-04T04:32:44;64.70;;;24.88;;
46006;SDS011;31738;50.188;8.524;2023-03-04T04:35:10;61.08;;;25.50;;
46006;SDS011;31738;50.188;8.524;2023-03-04T04:37:35;58.25;;;24.58;;
46006;SDS011;31738;50.188;8.524;2023-03-04T04:40:01;59.88;;;24.13;;
46006;SDS011;31738;50.188;8.524;2023-03-04T04:42:28;59.35;;;23.50;;
46006;SDS011;31738;50.188;8.524;2023-03-04T04:44:53;60.50;;;23.80;;
46006;SDS011;31738;50.188;8.524;2023-03-04T04:47:21;60.58;;;23.52;;
46006;SDS011;31738;50.188;8.524;2023-03-04T04:49:46;56.53;;;23.77;;
46006;SDS011;31738;50.188;8.524;2023-03-04T04:52:12;55.47;;;24.70;;
46006;SDS011;31738;50.188;8.524;2023-03-04T04:54:37;51.17;;;25.65;;
46006;SDS011;31738;50.188;8.524;2023-03-04T04:57:02;50.42;;;24.20;;
46006;SDS011;31738;50.188;8.524;2023-03-04T04:59:28;51.00;;;23.33;;
46006;SDS011;31738;50.188;8.524;2023-03-04T05:01:53;60.33;;;22.95;;
46006;SDS011;31738;50.188;8.524;2023-03-04T05:04:19;54.83;;;22.38;;
46006;SDS011;31738;50.188;8.524;2023-03-04T05:06:44;59.55;;;23.92;;
46006;SDS011;31738;50.188;8.524;2023-03-04T05:09:10;53.20;;;23.33;;
46006;SDS011;31738;50.188;8.524;2023-03-04T05:11:36;52.80;;;23.13;;
46006;SDS011;31738;50.188;8.524;2023-03-04T05:14:02;51.95;;;22.90;;
46006;SDS011;31738;50.188;8.524;2023-03-04T05:16:27;53.88;;;23.00;;
46006;SDS011;31738;50.188;8.524;2023-03-04T05:18:53;54.05;;;22.92;;
46006;SDS011;31738;50.188;8.524;2023-03-04T05:21:18;54.17;;;23.77;;
46006;SDS011;31738;50.188;8.524;2023-03-04T05:23:44;48.35;;;22.55;;
46006;SDS011;31738;50.188;8.524;2023-03-04T05:26:10;45.03;;;21.40;;
46006;SDS011;31738;50.188;8.524;2023-03-04T05:28:38;47.42;;;21.67;;
46006;SDS011;31738;50.188;8.524;2023-03-04T05:31:05;44.90;;;22.10;;
46006;SDS011;31738;50.188;8.524;2023-03-04T05:33:30;50.55;;;23.85;;
46006;SDS011;31738;50.188;8.524;2023-03-04T05:35:56;50.10;;;23.08;;
46006;SDS011;31738;50.188;8.524;2023-03-04T05:38:21;45.75;;;22.05;;
46006;SDS011;31738;50.188;8.524;2023-03-04T05:40:48;52.60;;;22.77;;
46006;SDS011;31738;50.188;8.524;2023-03-04T05:43:14;49.60;;;22.70;;
46006;SDS011;31738;50.188;8.524;2023-03-04T05:45:40;49.42;;;22.42;;
46006;SDS011;31738;50.188;8.524;2023-03-04T05:48:06;43.65;;;20.88;;
46006;SDS011;31738;50.188;8.524;2023-03-04T05:50:33;39.83;;;20.75;;
46006;SDS011;31738;50.188;8.524;2023-03-04T05:52:59;50.08;;;22.08;;
46006;SDS011;31738;50.188;8.524;2023-03-04T05:55:24;40.92;;;19.33;;
46006;SDS011;31738;50.188;8.524;2023-03-04T05:57:51;35.03;;;19.45;;
46006;SDS011;31738;50.188;8.524;2023-03-04T06:00:17;40.65;;;20.65;;
46006;SDS011;31738;50.188;8.524;2023-03-04T06:02:43;46.38;;;21.90;;
46006;SDS011;31738;50.188;8.524;2023-03-04T06:05:10;39.55;;;19.45;;
46006;SDS011;31738;50.188;8.524;2023-03-04T06:07:37;44.70;;;19.88;;
46006;SDS011;31738;50.188;8.524;2023-03-04T06:10:03;46.05;;;19.73;;
46006;SDS011;31738;50.188;8.524;2023-03-04T06:12:30;43.00;;;20.80;;
46006;SDS011;31738;50.188;8.524;2023-03-04T06:14:55;43.58;;;19.52;;
46006;SDS011;31738;50.188;8.524;2023-03-04T06:17:21;41.50;;;19.67;;
46006;SDS011;31738;50.188;8.524;2023-03-04T06:19:46;40.20;;;19.13;;
46006;SDS011;31738;50.188;8.524;2023-03-04T06:22:12;38.35;;;18.08;;
46006;SDS011;31738;50.188;8.524;2023-03-04T06:24:37;38.35;;;19.00;;
46006;SDS011;31738;50.188;8.524;2023-03-04T06:27:03;39.08;;;18.25;;
46006;SDS011;31738;50.188;8.524;2023-03-04T06:29:28;39.15;;;18.95;;
46006;SDS011;31738;50.188;8.524;2023-03-04T06:31:54;41.83;;;19.05;;
46006;SDS011;31738;50.188;8.524;2023-03-04T06:34:19;39.45;;;20.02;;
46006;SDS011;31738;50.188;8.524;2023-03-04T06:36:45;39.30;;;19.08;;
46006;SDS011;31738;50.188;8.524;2023-03-04T06:39:11;45.45;;;18.95;;
46006;SDS011;31738;50.188;8.524;2023-03-04T06:41:36;43.50;;;19.35;;
46006;SDS011;31738;50.188;8.524;2023-03-04T06:44:02;41.75;;;17.92;;
46006;SDS011;31738;50.188;8.524;2023-03-04T06:46:28;35.70;;;17.30;;
46006;SDS011;31738;50.188;8.524;2023-03-04T06:48:54;44.80;;;19.08;;
46006;SDS011;31738;50.188;8.524;2023-03-04T06:51:20;44.88;;;18.60;;
46006;SDS011;31738;50.188;8.524;2023-03-04T06:53:46;41.83;;;18.30;;
46006;SDS011;31738;50.188;8.524;2023-03-04T06:56:12;41.42;;;17.48;;
46006;SDS011;31738;50.188;8.524;2023-03-04T06:58:40;42.38;;;18.17;;
46006;SDS011;31738;50.188;8.524;2023-03-04T07:03:38;42.92;;;17.70;;
46006;SDS011;31738;50.188;8.524;2023-03-04T07:06:03;38.80;;;18.48;;
46006;SDS011;31738;50.188;8.524;2023-03-04T07:08:29;36.97;;;18.42;;
46006;SDS011;31738;50.188;8.524;2023-03-04T07:10:54;37.75;;;17.85;;
46006;SDS011;31738;50.188;8.524;2023-03-04T07:13:20;42.58;;;17.55;;
46006;SDS011;31738;50.188;8.524;2023-03-04T07:15:45;35.88;;;17.20;;
46006;SDS011;31738;50.188;8.524;2023-03-04T07:18:11;38.17;;;17.10;;
46006;SDS011;31738;50.188;8.524;2023-03-04T07:20:36;39.10;;;15.93;;
46006;SDS011;31738;50.188;8.524;2023-03-04T07:23:01;41.85;;;16.33;;
46006;SDS011;31738;50.188;8.524;2023-03-04T07:25:27;37.42;;;16.48;;
46006;SDS011;31738;50.188;8.524;2023-03-04T07:27:52;36.95;;;16.60;;
46006;SDS011;31738;50.188;8.524;2023-03-04T07:30:18;37.58;;;16.80;;
46006;SDS011;31738;50.188;8.524;2023-03-04T07:32:43;43.80;;;19.17;;
46006;SDS011;31738;50.188;8.524;2023-03-04T07:35:09;38.75;;;16.60;;
46006;SDS011;31738;50.188;8.524;2023-03-04T07:37:34;43.97;;;17.65;;
46006;SDS011;31738;50.188;8.524;2023-03-04T07:40:00;42.30;;;17.05;;
46006;SDS011;31738;50.188;8.524;2023-03-04T07:42:25;37.00;;;13.95;;
46006;SDS011;31738;50.188;8.524;2023-03-04T07:44:58;40.40;;;14.43;;
46006;SDS011;31738;50.188;8.524;2023-03-04T07:47:25;40.00;;;15.05;;
46006;SDS011;31738;50.188;8.524;2023-03-04T07:49:51;46.38;;;16.90;;
46006;SDS011;31738;50.188;8.524;2023-03-04T07:55:10;41.10;;;15.43;;
46006;SDS011;31738;50.188;8.524;2023-03-04T07:57:37;37.10;;;14.48;;
46006;SDS011;31738;50.188;8.524;2023-03-04T08:00:04;38.75;;;12.82;;
46006;SDS011;31738;50.188;8.524;2023-03-04T08:02:38;37.22;;;14.27;;
46006;SDS011;31738;50.188;8.524;2023-03-04T08:05:04;37.58;;;13.35;;
46006;SDS011;31738;50.188;8.524;2023-03-04T08:07:29;35.53;;;13.32;;
46006;SDS011;31738;50.188;8.524;2023-03-04T08:09:55;39.50;;;13.85;;
46006;SDS011;31738;50.188;8.524;2023-03-04T08:12:20;42.65;;;14.20;;
46006;SDS011;31738;50.188;8.524;2023-03-04T08:14:48;41.70;;;13.43;;
46006;SDS011;31738;50.188;8.524;2023-03-04T08:17:14;35.22;;;13.05;;
46006;SDS011;31738;50.188;8.524;2023-03-04T08:19:39;36.15;;;13.23;;
46006;SDS011;31738;50.188;8.524;2023-03-04T08:22:05;30.15;;;12.60;;
46006;SDS011;31738;50.188;8.524;2023-03-04T08:24:30;36.45;;;13.57;;
46006;SDS011;31738;50.188;8.524;2023-03-04T08:26:56;33.83;;;12.90;;
46006;SDS011;31738;50.188;8.524;2023-03-04T08:29:22;37.10;;;12.77;;
46006;SDS011;31738;50.188;8.524;2023-03-04T08:31:49;32.03;;;12.90;;
46006;SDS011;31738;50.188;8.524;2023-03-04T08:34:16;36.72;;;12.85;;
46006;SDS011;31738;50.188;8.524;2023-03-04T08:36:43;38.60;;;13.05;;
46006;SDS011;31738;50.188;8.524;2023-03-04T08:39:10;32.30;;;12.88;;
46006;SDS011;31738;50.188;8.524;2023-03-04T08:41:37;35.78;;;13.27;;
46006;SDS011;31738;50.188;8.524;2023-03-04T08:44:03;28.15;;;11.95;;
46006;SDS011;31738;50.188;8.524;2023-03-04T08:46:28;40.70;;;13.00;;
46006;SDS011;31738;50.188;8.524;2023-03-04T08:48:54;34.15;;;12.90;;
46006;SDS011;31738;50.188;8.524;2023-03-04T08:51:19;32.10;;;12.73;;
46006;SDS011;31738;50.188;8.524;2023-03-04T08:53:45;36.60;;;11.05;;
46006;SDS011;31738;50.188;8.524;2023-03-04T08:56:11;27.92;;;10.65;;
46006;SDS011;31738;50.188;8.524;2023-03-04T08:58:37;30.88;;;12.18;;
46006;SDS011;31738;50.188;8.524;2023-03-04T09:01:03;36.55;;;11.98;;
46006;SDS011;31738;50.188;8.524;2023-03-04T09:03:29;29.75;;;11.25;;
46006;SDS011;31738;50.188;8.524;2023-03-04T09:05:54;29.98;;;10.50;;
46006;SDS011;31738;50.188;8.524;2023-03-04T09:08:20;29.75;;;10.43;;
46006;SDS011;31738;50.188;8.524;2023-03-04T09:10:46;26.27;;;10.57;;
46006;SDS011;31738;50.188;8.524;2023-03-04T09:13:12;29.90;;;10.77;;
46006;SDS011;31738;50.188;8.524;2023-03-04T09:15:45;38.03;;;11.57;;
46006;SDS011;31738;50.188;8.524;2023-03-04T09:18:12;38.00;;;11.38;;
46006;SDS011;31738;50.188;8.524;2023-03-04T09:20:38;32.17;;;11.07;;
46006;SDS011;31738;50.188;8.524;2023-03-04T09:23:04;25.73;;;9.73;;
46006;SDS011;31738;50.188;8.524;2023-03-04T09:25:29;35.55;;;9.63;;
46006;SDS011;31738;50.188;8.524;2023-03-04T09:27:55;35.40;;;11.35;;
46006;SDS011;31738;50.188;8.524;2023-03-04T09:30:20;28.58;;;9.85;;
46006;SDS011;31738;50.188;8.524;2023-03-04T09:32:46;32.50;;;10.40;;
46006;SDS011;31738;50.188;8.524;2023-03-04T09:35:12;31.33;;;9.70;;
46006;SDS011;31738;50.188;8.524;2023-03-04T09:37:37;26.52;;;9.35;;
46006;SDS011;31738;50.188;8.524;2023-03-04T09:40:03;27.27;;;9.00;;
46006;SDS011;31738;50.188;8.524;2023-03-04T09:45:07;21.75;;;8.23;;
46006;SDS011;31738;50.188;8.524;2023-03-04T09:47:34;29.58;;;8.60;;
46006;SDS011;31738;50.188;8.524;2023-03-04T09:50:02;31.33;;;9.75;;
46006;SDS011;31738;50.188;8.524;2023-03-04T10:01:16;22.63;;;8.02;;
46006;SDS011;31738;50.188;8.524;2023-03-04T10:06:36;18.65;;;7.43;;
46006;SDS011;31738;50.188;8.524;2023-03-04T10:11:49;28.58;;;7.63;;
46006;SDS011;31738;50.188;8.524;2023-03-04T10:15:27;24.98;;;8.25;;
46006;SDS011;31738;50.188;8.524;2023-03-04T10:17:33;27.25;;;8.20;;
46006;SDS011;31738;50.188;8.524;2023-03-04T10:20:18;19.65;;;6.68;;
46006;SDS011;31738;50.188;8.524;2023-03-04T10:27:55;24.42;;;7.60;;
46006;SDS011;31738;50.188;8.524;2023-03-04T10:33:10;25.10;;;8.07;;
46006;SDS011;31738;50.188;8.524;2023-03-04T10:35:42;24.20;;;7.13;;
46006;SDS011;31738;50.188;8.524;2023-03-04T10:38:12;19.75;;;7.40;;
46006;SDS011;31738;50.188;8.524;2023-03-04T10:40:40;24.13;;;7.65;;
46006;SDS011;31738;50.188;8.524;2023-03-04T10:43:12;17.73;;;7.18;;
46006;SDS011;31738;50.188;8.524;2023-03-04T10:45:47;21.77;;;6.47;;
46006;SDS011;31738;50.188;8.524;2023-03-04T10:48:23;21.20;;;6.88;;
46006;SDS011;31738;50.188;8.524;2023-03-04T10:50:53;18.92;;;6.72;;
46006;SDS011;31738;50.188;8.524;2023-03-04T10:53:39;15.30;;;6.78;;
46006;SDS011;31738;50.188;8.524;2023-03-04T11:02:24;24.80;;;6.45;;
46006;SDS011;31738;50.188;8.524;2023-03-04T11:07:25;20.90;;;6.55;;
46006;SDS011;31738;50.188;8.524;2023-03-04T11:09:51;23.65;;;6.45;;
46006;SDS011;31738;50.188;8.524;2023-03-04T11:12:18;19.38;;;6.15;;
46006;SDS011;31738;50.188;8.524;2023-03-04T11:17:16;16.73;;;6.47;;
46006;SDS011;31738;50.188;8.524;2023-03-04T11:19:41;18.80;;;5.53;;
46006;SDS011;31738;50.188;8.524;2023-03-04T11:22:12;21.17;;;6.20;;
46006;SDS011;31738;50.188;8.524;2023-03-04T11:24:41;18.52;;;5.82;;
46006;SDS011;31738;50.188;8.524;2023-03-04T11:30:00;16.55;;;5.95;;
46006;SDS011;31738;50.188;8.524;2023-03-04T11:32:39;18.13;;;6.07;;
46006;SDS011;31738;50.188;8.524;2023-03-04T11:43:36;14.43;;;5.75;;
46006;SDS011;31738;50.188;8.524;2023-03-04T11:52:12;23.15;;;5.13;;
46006;SDS011;31738;50.188;8.524;2023-03-04T11:57:33;13.10;;;5.47;;
46006;SDS011;31738;50.188;8.524;2023-03-04T12:00:03;14.93;;;5.00;;
46006;SDS011;31738;50.188;8.524;2023-03-04T12:02:47;12.18;;;4.85;;
46006;SDS011;31738;50.188;8.524;2023-03-04T12:08:30;13.85;;;4.47;;
46006;SDS011;31738;50.188;8.524;2023-03-04T12:11:09;13.35;;;4.53;;
46006;SDS011;31738;50.188;8.524;2023-03-04T12:16:28;11.15;;;4.50;;
46006;SDS011;31738;50.188;8.524;2023-03-04T12:30:15;16.50;;;4.18;;
46006;SDS011;31738;50.188;8.524;2023-03-04T12:32:55;14.02;;;3.88;;
46006;SDS011;31738;50.188;8.524;2023-03-04T12:41:42;14.48;;;3.88;;
46006;SDS011;31738;50.188;8.524;2023-03-04T12:49:14;6.50;;;2.42;;
46006;SDS011;31738;50.188;8.524;2023-03-04T12:52:14;10.48;;;2.60;;
46006;SDS011;31738;50.188;8.524;2023-03-04T12:55:00;5.18;;;2.58;;
46006;SDS011;31738;50.188;8.524;2023-03-04T12:57:28;7.32;;;2.40;;
46006;SDS011;31738;50.188;8.524;2023-03-04T13:03:02;5.35;;;2.65;;
46006;SDS011;31738;50.188;8.524;2023-03-04T13:05:45;7.30;;;2.80;;
46006;SDS011;31738;50.188;8.524;2023-03-04T13:08:38;7.43;;;2.65;;
46006;SDS011;31738;50.188;8.524;2023-03-04T13:16:51;10.25;;;3.03;;
46006;SDS011;31738;50.188;8.524;2023-03-04T13:43:42;11.75;;;4.43;;
46006;SDS011;31738;50.188;8.524;2023-03-04T14:01:47;10.02;;;5.32;;
46006;SDS011;31738;50.188;8.524;2023-03-04T14:04:35;12.23;;;5.57;;
46006;SDS011;31738;50.188;8.524;2023-03-04T14:12:38;11.63;;;5.90;;
46006;SDS011;31738;50.188;8.524;2023-03-04T14:17:37;13.35;;;5.95;;
46006;SDS011;31738;50.188;8.524;2023-03-04T14:20:04;14.27;;;6.45;;
46006;SDS011;31738;50.188;8.524;2023-03-04T14:22:45;14.82;;;5.70;;
46006;SDS011;31738;50.188;8.524;2023-03-04T14:28:09;16.25;;;6.22;;
46006;SDS011;31738;50.188;8.524;2023-03-04T14:30:37;12.63;;;5.63;;
46006;SDS011;31738;50.188;8.524;2023-03-04T14:33:05;18.92;;;6.75;;
46006;SDS011;31738;50.188;8.524;2023-03-04T14:35:32;15.02;;;5.85;;
46006;SDS011;31738;50.188;8.524;2023-03-04T14:38:17;12.75;;;5.88;;
46006;SDS011;31738;50.188;8.524;2023-03-04T14:40:49;11.40;;;5.20;;
46006;SDS011;31738;50.188;8.524;2023-03-04T14:43:19;13.60;;;5.47;;
46006;SDS011;31738;50.188;8.524;2023-03-04T14:45:47;11.85;;;5.03;;
46006;SDS011;31738;50.188;8.524;2023-03-04T14:48:22;15.25;;;5.70;;
46006;SDS011;31738;50.188;8.524;2023-03-04T14:50:51;10.75;;;4.72;;
46006;SDS011;31738;50.188;8.524;2023-03-04T14:53:20;8.90;;;4.60;;
46006;SDS011;31738;50.188;8.524;2023-03-04T14:56:01;12.65;;;4.80;;
46006;SDS011;31738;50.188;8.524;2023-03-04T14:58:30;10.50;;;5.00;;
46006;SDS011;31738;50.188;8.524;2023-03-04T15:01:13;10.77;;;4.50;;
46006;SDS011;31738;50.188;8.524;2023-03-04T15:03:41;8.75;;;4.18;;
46006;SDS011;31738;50.188;8.524;2023-03-04T15:06:20;12.27;;;4.40;;
46006;SDS011;31738;50.188;8.524;2023-03-04T15:08:53;14.20;;;3.80;;
46006;SDS011;31738;50.188;8.524;2023-03-04T15:11:22;7.80;;;4.22;;
46006;SDS011;31738;50.188;8.524;2023-03-04T15:13:51;10.75;;;3.90;;
46006;SDS011;31738;50.188;8.524;2023-03-04T15:16:20;9.45;;;4.40;;
46006;SDS011;31738;50.188;8.524;2023-03-04T15:18:58;10.13;;;4.15;;
46006;SDS011;31738;50.188;8.524;2023-03-04T15:21:42;9.00;;;3.45;;
46006;SDS011;31738;50.188;8.524;2023-03-04T15:24:09;5.53;;;3.28;;
46006;SDS011;31738;50.188;8.524;2023-03-04T15:26:39;11.18;;;3.40;;
46006;SDS011;31738;50.188;8.524;2023-03-04T15:29:10;8.40;;;3.40;;
46006;SDS011;31738;50.188;8.524;2023-03-04T15:31:39;8.52;;;3.50;;
46006;SDS011;31738;50.188;8.524;2023-03-04T15:34:09;9.50;;;3.55;;
46006;SDS011;31738;50.188;8.524;2023-03-04T15:36:37;9.60;;;4.03;;
46006;SDS011;31738;50.188;8.524;2023-03-04T15:39:02;10.90;;;4.40;;
46006;SDS011;31738;50.188;8.524;2023-03-04T15:41:28;13.43;;;4.78;;
46006;SDS011;31738;50.188;8.524;2023-03-04T15:43:53;10.52;;;4.57;;
46006;SDS011;31738;50.188;8.524;2023-03-04T15:46:19;12.60;;;4.53;;
46006;SDS011;31738;50.188;8.524;2023-03-04T15:48:46;18.50;;;4.85;;
46006;SDS011;31738;50.188;8.524;2023-03-04T15:51:13;16.35;;;5.32;;
46006;SDS011;31738;50.188;8.524;2023-03-04T15:53:41;12.13;;;5.20;;
46006;SDS011;31738;50.188;8.524;2023-03-04T15:56:11;13.13;;;5.50;;
46006;SDS011;31738;50.188;8.524;2023-03-04T15:58:42;10.48;;;4.63;;
46006;SDS011;31738;50.188;8.524;2023-03-04T16:01:10;12.75;;;5.47;;
46006;SDS011;31738;50.188;8.524;2023-03-04T16:03:40;13.60;;;5.82;;
46006;SDS011;31738;50.188;8.524;2023-03-04T16:06:12;13.25;;;5.70;;
46006;SDS011;31738;50.188;8.524;2023-03-04T16:08:39;15.63;;;6.88;;
46006;SDS011;31738;50.188;8.524;2023-03-04T16:11:06;18.02;;;7.18;;
46006;SDS011;31738;50.188;8.524;2023-03-04T16:13:39;17.30;;;7.30;;
46006;SDS011;31738;50.188;8.524;2023-03-04T16:16:05;17.40;;;8.27;;
46006;SDS011;31738;50.188;8.524;2023-03-04T16:18:38;16.77;;;8.00;;
46006;SDS011;31738;50.188;8.524;2023-03-04T16:21:05;14.02;;;7.50;;
46006;SDS011;31738;50.188;8.524;2023-03-04T16:23:32;20.63;;;7.93;;
46006;SDS011;31738;50.188;8.524;2023-03-04T16:26:03;13.98;;;8.07;;
46006;SDS011;31738;50.188;8.524;2023-03-04T16:28:35;19.77;;;9.32;;
46006;SDS011;31738;50.188;8.524;2023-03-04T16:31:00;18.73;;;9.45;;
46006;SDS011;31738;50.188;8.524;2023-03-04T16:33:26;18.23;;;9.15;;
46006;SDS011;31738;50.188;8.524;2023-03-04T16:35:51;21.15;;;9.85;;
46006;SDS011;31738;50.188;8.524;2023-03-04T16:38:18;20.05;;;8.65;;
46006;SDS011;31738;50.188;8.524;2023-03-04T16:40:49;21.08;;;9.80;;
46006;SDS011;31738;50.188;8.524;2023-03-04T16:43:15;18.13;;;10.00;;
46006;SDS011;31738;50.188;8.524;2023-03-04T16:45:41;20.25;;;9.68;;
46006;SDS011;31738;50.188;8.524;2023-03-04T16:48:06;18.55;;;10.50;;
46006;SDS011;31738;50.188;8.524;2023-03-04T16:50:32;20.55;;;9.57;;
46006;SDS011;31738;50.188;8.524;2023-03-04T16:53:00;22.52;;;10.18;;
46006;SDS011;31738;50.188;8.524;2023-03-04T16:55:26;19.23;;;9.75;;
46006;SDS011;31738;50.188;8.524;2023-03-04T16:57:54;22.38;;;10.45;;
46006;SDS011;31738;50.188;8.524;2023-03-04T17:00:22;18.67;;;10.75;;
46006;SDS011;31738;50.188;8.524;2023-03-04T17:02:56;20.08;;;10.63;;